createdAt,value
2018-02-11T00:00:50.608Z,82.28
2018-02-11T00:03:18.881Z,81.53
2018-02-11T00:05:47.915Z,80.58
2018-02-11T00:08:16.175Z,81.55
2018-02-11T00:10:44.461Z,80.80
2018-02-11T00:13:13.500Z,81.81
2018-02-11T00:15:41.777Z,80.50
2018-02-11T00:18:10.813Z,80.10
2018-02-11T00:20:39.088Z,79.88
2018-02-11T00:23:11.174Z,80.33
2018-02-11T00:25:39.457Z,79.95
2018-02-11T00:28:07.716Z,79.63
2018-02-11T00:30:36.004Z,79.47
2018-02-11T00:33:04.272Z,80.28
2018-02-11T00:35:33.317Z,80.02
2018-02-11T00:38:06.998Z,79.44
2018-02-11T00:40:36.045Z,80.51
2018-02-11T00:43:04.315Z,80.52
2018-02-11T00:45:32.605Z,81.24
2018-02-11T00:48:00.885Z,79.43
2018-02-11T00:50:29.162Z,79.95
2018-02-11T00:52:58.205Z,80.36
2018-02-11T00:55:27.265Z,80.16
2018-02-11T00:57:56.304Z,79.51
2018-02-11T01:00:24.571Z,79.40
2018-02-11T01:02:53.611Z,79.27
2018-02-11T01:05:21.889Z,81.64
2018-02-11T01:07:50.443Z,81.19
2018-02-11T01:10:19.490Z,83.19
2018-02-11T01:12:47.755Z,84.27
2018-02-11T01:15:16.796Z,81.07
2018-02-11T01:17:45.078Z,81.57
2018-02-11T01:20:13.336Z,82.09
2018-02-11T01:22:42.379Z,81.95
2018-02-11T01:25:10.656Z,82.65
2018-02-11T01:27:38.937Z,82.08
2018-02-11T01:30:07.215Z,81.88
2018-02-11T01:32:35.491Z,81.46
2018-02-11T01:35:04.532Z,83.04
2018-02-11T01:37:32.825Z,82.29
2018-02-11T01:40:01.102Z,83.75
2018-02-11T01:42:29.380Z,84.19
2018-02-11T01:44:57.661Z,84.37
2018-02-11T01:47:26.707Z,84.39
2018-02-11T01:50:12.700Z,84.06
2018-02-11T01:52:40.989Z,82.68
2018-02-11T01:55:09.264Z,81.72
2018-02-11T01:57:37.531Z,80.52
2018-02-11T02:00:06.583Z,81.78
2018-02-11T02:02:34.873Z,82.16
2018-02-11T02:05:03.148Z,82.44
2018-02-11T02:07:31.411Z,83.40
2018-02-11T02:09:59.692Z,83.63
2018-02-11T02:12:28.732Z,83.48
2018-02-11T02:14:57.001Z,82.32
2018-02-11T02:17:25.294Z,82.73
2018-02-11T02:19:53.563Z,83.67
2018-02-11T02:22:22.605Z,84.17
2018-02-11T02:24:50.874Z,83.37
2018-02-11T02:27:19.145Z,83.74
2018-02-11T02:29:48.182Z,83.35
2018-02-11T02:32:16.448Z,83.36
2018-02-11T02:34:44.715Z,84.85
2018-02-11T02:37:13.754Z,85.41
2018-02-11T02:39:42.032Z,84.51
2018-02-11T02:42:10.309Z,84.04
2018-02-11T02:44:39.340Z,84.46
2018-02-11T02:47:07.625Z,83.89
2018-02-11T02:49:35.923Z,81.97
2018-02-11T02:52:04.209Z,82.38
2018-02-11T02:54:32.485Z,83.96
2018-02-11T02:57:00.891Z,83.78
2018-02-11T02:59:29.156Z,84.75
2018-02-11T03:01:58.192Z,83.84
2018-02-11T03:04:26.464Z,82.51
2018-02-11T03:06:54.735Z,83.53
2018-02-11T03:09:23.773Z,83.10
2018-02-11T03:11:52.050Z,82.72
2018-02-11T03:14:20.330Z,81.16
2018-02-11T03:16:48.614Z,80.65
2018-02-11T03:19:16.880Z,80.97
2018-02-11T03:21:45.918Z,80.59
2018-02-11T03:24:14.196Z,80.56
2018-02-11T03:26:42.480Z,81.31
2018-02-11T03:29:11.507Z,81.22
2018-02-11T03:31:39.792Z,80.84
2018-02-11T03:34:08.051Z,82.03
2018-02-11T03:36:37.093Z,82.67
2018-02-11T03:39:05.384Z,82.53
2018-02-11T03:41:33.663Z,81.89
2018-02-11T03:44:01.927Z,82.04
2018-02-11T03:46:30.204Z,81.47
2018-02-11T03:48:58.468Z,80.92
2018-02-11T03:51:26.743Z,81.30
2018-02-11T03:53:55.013Z,80.25
2018-02-11T03:56:23.291Z,80.30
2018-02-11T03:58:51.573Z,80.35
2018-02-11T04:01:19.848Z,80.42
2018-02-11T04:03:48.880Z,79.50
2018-02-11T04:06:17.165Z,78.87
2018-02-11T04:08:45.430Z,76.60
2018-02-11T04:11:14.458Z,77.20
2018-02-11T04:13:42.723Z,76.51
2018-02-11T04:16:11.757Z,77.23
2018-02-11T04:18:40.032Z,76.86
2018-02-11T04:21:08.304Z,77.47
2018-02-11T04:23:37.344Z,77.53
2018-02-11T04:26:05.603Z,77.69
2018-02-11T04:28:34.668Z,76.49
2018-02-11T04:31:02.937Z,75.46
2018-02-11T04:33:31.279Z,76.23
2018-02-11T04:35:59.506Z,77.14
2018-02-11T04:38:27.776Z,76.56
2018-02-11T04:40:56.053Z,77.81
2018-02-11T04:43:25.096Z,76.85
2018-02-11T04:45:53.405Z,75.44
2018-02-11T04:48:21.672Z,76.71
2018-02-11T04:50:49.951Z,76.53
2018-02-11T04:53:18.219Z,78.18
2018-02-11T04:55:46.492Z,77.32
2018-02-11T04:58:15.527Z,77.20
2018-02-11T05:00:43.787Z,78.59
2018-02-11T05:03:12.827Z,78.17
2018-02-11T05:05:41.097Z,77.55
2018-02-11T05:08:09.368Z,77.76
2018-02-11T05:10:38.401Z,76.99
2018-02-11T05:13:06.690Z,77.82
2018-02-11T05:15:34.958Z,77.57
2018-02-11T05:18:03.993Z,79.00
2018-02-11T05:20:32.960Z,78.20
2018-02-11T05:23:02.014Z,77.83
2018-02-11T05:25:30.277Z,78.22
2018-02-11T05:27:58.543Z,79.12
2018-02-11T05:30:27.581Z,80.95
2018-02-11T05:32:55.842Z,80.81
2018-02-11T05:35:24.877Z,80.53
2018-02-11T05:37:53.148Z,81.13
2018-02-11T05:40:22.177Z,79.26
2018-02-11T05:42:50.457Z,79.84
2018-02-11T05:45:18.725Z,80.32
2018-02-11T05:47:47.762Z,79.87
2018-02-11T05:50:16.031Z,79.87
2018-02-11T05:52:44.309Z,79.09
2018-02-11T05:55:13.334Z,78.93
2018-02-11T05:57:41.595Z,77.10
2018-02-11T06:00:10.623Z,76.63
2018-02-11T06:02:38.887Z,77.42
2018-02-11T06:05:07.160Z,77.84
2018-02-11T06:07:35.428Z,78.51
2018-02-11T06:10:03.692Z,78.86
2018-02-11T06:12:32.740Z,78.07
2018-02-11T06:15:01.013Z,78.48
2018-02-11T06:17:29.287Z,78.20
2018-02-11T06:19:57.549Z,78.93
2018-02-11T06:22:25.819Z,78.86
2018-02-11T06:24:54.854Z,78.35
2018-02-11T06:27:23.111Z,78.30
2018-02-11T06:29:52.140Z,79.37
2018-02-11T06:32:20.410Z,78.91
2018-02-11T06:34:48.680Z,78.24
2018-02-11T06:37:17.807Z,78.76
2018-02-11T06:39:46.066Z,78.39
2018-02-11T06:42:14.341Z,77.82
2018-02-11T06:44:42.605Z,79.59
2018-02-11T06:47:10.869Z,80.70
2018-02-11T06:49:39.123Z,80.88
2018-02-11T06:52:07.396Z,80.47
2018-02-11T06:54:35.666Z,79.71
2018-02-11T06:57:04.016Z,81.00
2018-02-11T06:59:32.292Z,80.59
2018-02-11T07:02:01.321Z,80.64
2018-02-11T07:04:29.587Z,79.68
2018-02-11T07:06:58.607Z,80.99
2018-02-11T07:09:26.992Z,79.58
2018-02-11T07:11:56.023Z,79.47
2018-02-11T07:14:24.288Z,79.24
2018-02-11T07:16:52.561Z,79.05
2018-02-11T07:19:21.601Z,80.20
2018-02-11T07:21:49.855Z,80.00
2018-02-11T07:24:18.892Z,80.40
2018-02-11T07:26:47.156Z,81.20
2018-02-11T07:29:16.186Z,81.81
2018-02-11T07:31:44.444Z,81.65
2018-02-11T07:34:13.480Z,81.11
2018-02-11T07:36:41.748Z,80.90
2018-02-11T07:39:10.783Z,81.44
2018-02-11T07:41:39.037Z,82.78
2018-02-11T07:44:08.077Z,83.07
2018-02-11T07:46:36.349Z,81.71
2018-02-11T07:49:04.619Z,81.77
2018-02-11T07:51:33.656Z,81.85
2018-02-11T07:54:01.918Z,81.38
2018-02-11T07:56:30.943Z,81.38
2018-02-11T07:58:59.209Z,81.90
2018-02-11T08:01:28.236Z,81.70
2018-02-11T08:03:56.508Z,82.86
2018-02-11T08:06:25.553Z,82.41
2018-02-11T08:08:53.819Z,81.47
2018-02-11T08:11:22.080Z,83.82
2018-02-11T08:13:50.382Z,82.57
2018-02-11T08:16:19.404Z,84.38
2018-02-11T08:18:47.684Z,83.93
2018-02-11T08:21:15.937Z,83.58
2018-02-11T08:23:44.199Z,85.45
2018-02-11T08:26:12.464Z,85.54
2018-02-11T08:28:40.734Z,85.24
2018-02-11T08:31:08.991Z,83.40
2018-02-11T08:33:37.272Z,85.44
2018-02-11T08:36:05.532Z,86.02
2018-02-11T08:38:33.799Z,85.60
2018-02-11T08:41:02.065Z,85.46
2018-02-11T08:43:31.136Z,85.53
2018-02-11T08:45:59.396Z,86.74
2018-02-11T08:48:27.672Z,86.87
2018-02-11T08:50:55.944Z,86.91
2018-02-11T08:53:24.213Z,87.26
2018-02-11T08:55:53.236Z,87.82
2018-02-11T08:58:21.507Z,87.22
2018-02-11T09:00:50.524Z,87.22
2018-02-11T09:03:19.574Z,86.85
2018-02-11T09:05:47.840Z,86.46
2018-02-11T09:08:16.117Z,87.16
2018-02-11T09:10:44.371Z,87.10
2018-02-11T09:13:12.643Z,86.99
2018-02-11T09:15:40.912Z,87.28
2018-02-11T09:18:09.172Z,86.54
2018-02-11T09:20:38.382Z,86.41
2018-02-11T09:23:06.654Z,86.94
2018-02-11T09:25:35.691Z,85.48
2018-02-11T09:28:04.741Z,86.14
2018-02-11T09:30:33.074Z,86.16
2018-02-11T09:33:03.312Z,86.93
2018-02-11T09:35:32.503Z,88.09
2018-02-11T09:38:01.550Z,88.87
2018-02-11T09:40:29.813Z,89.48
2018-02-11T09:42:58.089Z,88.48
2018-02-11T09:45:27.116Z,88.92
2018-02-11T09:47:55.396Z,89.75
2018-02-11T09:50:23.673Z,91.12
2018-02-11T09:52:52.707Z,90.86
2018-02-11T09:55:20.979Z,90.82
2018-02-11T09:57:49.242Z,90.27
2018-02-11T10:00:18.284Z,89.54
2018-02-11T10:02:46.547Z,90.27
2018-02-11T10:05:15.589Z,89.79
2018-02-11T10:07:43.854Z,88.99
2018-02-11T10:10:12.147Z,89.44
2018-02-11T10:12:41.163Z,90.01
2018-02-11T10:15:09.440Z,89.51
2018-02-11T10:17:37.704Z,88.39
2018-02-11T10:20:06.739Z,88.88
2018-02-11T10:22:35.017Z,88.92
2018-02-11T10:25:03.383Z,88.78
2018-02-11T10:27:32.432Z,88.54
2018-02-11T10:30:00.696Z,87.75
2018-02-11T10:32:28.960Z,86.98
2018-02-11T10:34:57.231Z,86.61
2018-02-11T10:37:25.487Z,86.55
2018-02-11T10:39:53.761Z,87.02
2018-02-11T10:42:22.024Z,86.46
2018-02-11T10:44:51.059Z,85.91
2018-02-11T10:47:19.324Z,86.10
2018-02-11T10:49:48.360Z,86.03
2018-02-11T10:52:16.633Z,84.45
2018-02-11T10:54:44.906Z,84.83
2018-02-11T10:57:13.931Z,84.29
2018-02-11T10:59:42.208Z,83.73
2018-02-11T11:02:10.477Z,83.26
2018-02-11T11:04:39.519Z,85.64
2018-02-11T11:07:07.788Z,84.74
2018-02-11T11:09:36.055Z,84.20
2018-02-11T11:12:05.123Z,84.44
2018-02-11T11:14:34.300Z,84.20
2018-02-11T11:17:03.496Z,84.94
2018-02-11T11:19:32.535Z,84.91
2018-02-11T11:22:00.805Z,83.37
2018-02-11T11:24:29.088Z,84.08
2018-02-11T11:26:57.371Z,84.89
2018-02-11T11:29:26.417Z,83.66
2018-02-11T11:31:54.690Z,84.69
2018-02-11T11:34:22.968Z,82.89
2018-02-11T11:36:51.236Z,84.15
2018-02-11T11:39:20.272Z,83.65
2018-02-11T11:41:48.551Z,82.44
2018-02-11T11:44:16.810Z,81.33
2018-02-11T11:46:45.861Z,80.19
2018-02-11T11:49:14.133Z,81.19
2018-02-11T11:51:42.402Z,82.36
2018-02-11T11:54:11.458Z,80.94
2018-02-11T11:56:39.708Z,80.74
2018-02-11T11:59:07.981Z,81.79
2018-02-11T12:01:37.019Z,83.49
2018-02-11T12:04:05.283Z,83.79
2018-02-11T12:06:34.332Z,82.72
2018-02-11T12:09:02.614Z,82.67
2018-02-11T12:11:30.879Z,81.76
2018-02-11T12:13:59.149Z,81.91
2018-02-11T12:16:28.179Z,82.00
2018-02-11T12:18:56.441Z,81.70
2018-02-11T12:21:25.476Z,82.28
2018-02-11T12:23:53.748Z,82.19
2018-02-11T12:26:22.028Z,81.88
2018-02-11T12:28:51.255Z,82.08
2018-02-11T12:31:19.530Z,82.50
2018-02-11T12:33:48.656Z,81.10
2018-02-11T12:36:16.949Z,82.27
2018-02-11T12:38:45.220Z,82.09
2018-02-11T12:41:13.497Z,81.47
2018-02-11T12:43:43.436Z,81.08
2018-02-11T12:46:11.709Z,81.07
2018-02-11T12:48:40.736Z,80.91
2018-02-11T12:51:09.014Z,81.15
2018-02-11T12:53:37.277Z,82.23
2018-02-11T12:56:05.578Z,82.21
2018-02-11T12:58:33.813Z,81.76
2018-02-11T13:01:02.076Z,81.68
2018-02-11T13:03:30.355Z,80.96
2018-02-11T13:05:59.847Z,81.02
2018-02-11T13:08:28.120Z,81.09
2018-02-11T13:10:56.385Z,80.37
2018-02-11T13:13:25.184Z,80.81
2018-02-11T13:15:53.463Z,80.34
2018-02-11T13:18:21.711Z,81.33
2018-02-11T13:20:50.756Z,79.53
2018-02-11T13:23:19.019Z,80.49
2018-02-11T13:25:47.333Z,79.49
2018-02-11T13:28:15.591Z,78.61
2018-02-11T13:30:44.634Z,78.34
2018-02-11T13:33:12.905Z,79.56
2018-02-11T13:35:41.171Z,81.16
2018-02-11T13:38:10.201Z,80.80
2018-02-11T13:40:38.483Z,80.76
2018-02-11T13:43:06.735Z,79.98
2018-02-11T13:45:35.003Z,80.54
2018-02-11T13:48:03.271Z,78.73
2018-02-11T13:50:31.557Z,79.33
2018-02-11T13:52:59.832Z,80.54
2018-02-11T13:55:28.113Z,81.32
2018-02-11T13:57:56.404Z,81.01
2018-02-11T14:00:24.701Z,80.95
2018-02-11T14:02:52.952Z,81.17
2018-02-11T14:05:21.260Z,80.14
2018-02-11T14:07:49.524Z,80.47
2018-02-11T14:10:17.787Z,79.40
2018-02-11T14:12:46.068Z,79.63
2018-02-11T14:15:14.332Z,79.45
2018-02-11T14:17:43.008Z,78.96
2018-02-11T14:20:11.290Z,78.69
2018-02-11T14:22:40.321Z,78.71
2018-02-11T14:25:08.593Z,77.04
2018-02-11T14:27:37.612Z,78.11
2018-02-11T14:30:05.879Z,77.83
2018-02-11T14:32:34.908Z,76.88
2018-02-11T14:35:03.182Z,78.07
2018-02-11T14:37:31.459Z,77.38
2018-02-11T14:40:00.498Z,78.51
2018-02-11T14:42:28.764Z,77.84
2018-02-11T14:44:57.054Z,77.92
2018-02-11T14:47:26.081Z,77.93
2018-02-11T14:49:54.347Z,78.04
2018-02-11T14:52:22.621Z,77.07
2018-02-11T14:54:51.656Z,77.10
2018-02-11T14:57:19.920Z,79.66
2018-02-11T14:59:48.984Z,79.98
2018-02-11T15:02:17.238Z,79.32
2018-02-11T15:04:45.503Z,80.84
2018-02-11T15:07:13.775Z,80.78
2018-02-11T15:09:42.812Z,81.18
2018-02-11T15:12:11.092Z,81.55
2018-02-11T15:14:39.356Z,80.95
2018-02-11T15:17:08.391Z,81.13
2018-02-11T15:19:36.651Z,79.08
2018-02-11T15:22:04.919Z,80.12
2018-02-11T15:24:33.175Z,80.61
2018-02-11T15:27:01.462Z,82.42
2018-02-11T15:29:29.723Z,83.06
2018-02-11T15:31:58.773Z,83.44
2018-02-11T15:34:27.050Z,84.71
2018-02-11T15:36:55.309Z,84.50
2018-02-11T15:39:24.346Z,83.35
2018-02-11T15:41:52.637Z,83.68
2018-02-11T15:44:20.894Z,83.11
2018-02-11T15:46:49.163Z,83.22
2018-02-11T15:49:18.198Z,83.46
2018-02-11T15:51:46.472Z,83.18
2018-02-11T15:54:14.738Z,84.39
2018-02-11T15:56:43.045Z,84.64
2018-02-11T15:59:12.068Z,84.10
2018-02-11T16:01:40.354Z,84.49
2018-02-11T16:04:08.621Z,83.37
2018-02-11T16:06:37.672Z,83.93
2018-02-11T16:09:05.935Z,84.00
2018-02-11T16:11:34.221Z,83.23
2018-02-11T16:14:02.487Z,84.14
2018-02-11T16:16:31.538Z,84.42
2018-02-11T16:18:59.804Z,85.25
2018-02-11T16:21:28.089Z,84.67
2018-02-11T16:23:57.122Z,83.85
2018-02-11T16:26:25.396Z,82.71
2018-02-11T16:28:53.664Z,84.45
2018-02-11T16:31:22.713Z,82.54
2018-02-11T16:33:50.971Z,83.45
2018-02-11T16:36:19.249Z,82.54
2018-02-11T16:38:47.520Z,81.26
2018-02-11T16:41:15.808Z,80.11
2018-02-11T16:43:44.071Z,79.14
2018-02-11T16:46:12.357Z,79.34
2018-02-11T16:48:40.669Z,80.34
2018-02-11T16:51:08.901Z,80.94
2018-02-11T16:53:37.173Z,81.00
2018-02-11T16:56:05.446Z,81.00
2018-02-11T16:58:34.485Z,81.20
2018-02-11T17:01:02.768Z,81.30
2018-02-11T17:03:31.029Z,82.64
2018-02-11T17:06:00.076Z,82.14
2018-02-11T17:08:28.345Z,82.02
2018-02-11T17:10:56.637Z,81.34
2018-02-11T17:13:24.944Z,81.78
2018-02-11T17:15:53.217Z,81.39
2018-02-11T17:18:21.484Z,82.13
2018-02-11T17:20:50.532Z,82.56
2018-02-11T17:23:18.805Z,82.53
2018-02-11T17:25:47.087Z,83.48
2018-02-11T17:28:15.348Z,83.62
2018-02-11T17:30:44.387Z,83.79
2018-02-11T17:33:12.661Z,83.95
2018-02-11T17:35:40.935Z,84.52
2018-02-11T17:38:09.967Z,83.28
2018-02-11T17:40:38.243Z,82.48
2018-02-11T17:43:06.512Z,83.83
2018-02-11T17:45:36.255Z,84.09
2018-02-11T17:48:04.535Z,82.37
2018-02-11T17:50:33.576Z,83.48
2018-02-11T17:53:01.880Z,83.30
2018-02-11T17:55:30.152Z,83.76
2018-02-11T17:58:00.173Z,83.51
2018-02-11T18:00:28.454Z,84.05
2018-02-11T18:02:56.731Z,84.34
2018-02-11T18:05:25.776Z,83.84
2018-02-11T18:07:54.051Z,82.62
2018-02-11T18:10:22.333Z,81.47
2018-02-11T18:12:50.624Z,80.47
2018-02-11T18:15:18.891Z,80.19
2018-02-11T18:17:47.192Z,80.04
2018-02-11T18:20:16.410Z,80.92
2018-02-11T18:22:44.689Z,81.15
2018-02-11T18:25:12.967Z,80.47
2018-02-11T18:27:41.274Z,79.91
2018-02-11T18:30:09.547Z,80.22
2018-02-11T18:32:38.602Z,79.77
2018-02-11T18:35:06.877Z,78.28
2018-02-11T18:37:35.162Z,79.67
2018-02-11T18:40:03.436Z,78.98
2018-02-11T18:42:31.718Z,79.87
2018-02-11T18:44:59.978Z,78.11
2018-02-11T18:47:29.012Z,77.28
2018-02-11T18:49:57.284Z,77.73
2018-02-11T18:52:26.326Z,79.12
2018-02-11T18:54:54.604Z,78.39
2018-02-11T18:57:22.875Z,79.56
2018-02-11T18:59:51.161Z,80.06
2018-02-11T19:02:19.436Z,79.73
2018-02-11T19:04:48.469Z,80.38
2018-02-11T19:07:16.799Z,80.51
2018-02-11T19:09:45.051Z,79.89
2018-02-11T19:12:13.328Z,79.98
2018-02-11T19:14:41.598Z,79.53
2018-02-11T19:17:10.672Z,79.90
2018-02-11T19:19:38.924Z,78.50
2018-02-11T19:22:07.196Z,79.67
2018-02-11T19:24:35.473Z,79.46
2018-02-11T19:27:04.512Z,80.04
2018-02-11T19:29:32.791Z,78.44
2018-02-11T19:32:01.059Z,77.67
2018-02-11T19:34:30.135Z,78.01
2018-02-11T19:36:58.386Z,77.62
2018-02-11T19:39:26.656Z,77.06
2018-02-11T19:41:54.918Z,77.61
2018-02-11T19:44:24.641Z,78.22
2018-02-11T19:46:52.912Z,78.83
2018-02-11T19:49:21.184Z,79.49
2018-02-11T19:51:49.443Z,79.39
2018-02-11T19:54:18.485Z,78.71
2018-02-11T19:56:46.770Z,79.72
2018-02-11T19:59:15.041Z,78.69
2018-02-11T20:01:43.307Z,77.95
2018-02-11T20:04:11.596Z,77.74
2018-02-11T20:06:39.855Z,79.29
2018-02-11T20:09:08.891Z,78.76
2018-02-11T20:11:37.170Z,78.20
2018-02-11T20:14:05.453Z,76.85
2018-02-11T20:16:34.482Z,76.43
2018-02-11T20:19:02.760Z,76.77
2018-02-11T20:21:31.024Z,76.36
2018-02-11T20:24:00.059Z,75.35
2018-02-11T20:26:28.325Z,75.34
2018-02-11T20:28:57.367Z,74.68
2018-02-11T20:31:25.630Z,74.24
2018-02-11T20:33:53.925Z,74.35
2018-02-11T20:36:22.207Z,76.50
2018-02-11T20:38:50.474Z,76.64
2018-02-11T20:41:19.832Z,77.40
2018-02-11T20:43:48.108Z,77.12
2018-02-11T20:46:16.389Z,76.01
2018-02-11T20:48:44.664Z,75.69
2018-02-11T20:51:13.702Z,75.29
2018-02-11T20:53:41.968Z,75.10
2018-02-11T20:56:10.257Z,75.51
2018-02-11T20:58:38.529Z,75.29
2018-02-11T21:01:07.598Z,74.68
2018-02-11T21:03:35.852Z,74.39
2018-02-11T21:06:04.123Z,75.61
2018-02-11T21:08:32.396Z,76.44
2018-02-11T21:11:01.440Z,76.28
2018-02-11T21:13:29.712Z,78.20
2018-02-11T21:15:57.995Z,78.09
2018-02-11T21:18:26.264Z,77.88
2018-02-11T21:20:55.311Z,77.27
2018-02-11T21:23:23.579Z,76.49
2018-02-11T21:25:52.619Z,76.49
2018-02-11T21:28:20.888Z,76.06
2018-02-11T21:30:49.174Z,75.86
2018-02-11T21:33:17.449Z,74.90
2018-02-11T21:35:45.722Z,75.11
2018-02-11T21:38:14.757Z,74.93
2018-02-11T21:40:43.040Z,74.36
2018-02-11T21:43:11.328Z,73.42
2018-02-11T21:45:39.614Z,73.68
2018-02-11T21:48:07.919Z,73.79
2018-02-11T21:50:36.190Z,74.08
2018-02-11T21:53:04.455Z,73.47
2018-02-11T21:55:32.729Z,73.44
2018-02-11T21:58:00.996Z,73.78
2018-02-11T22:00:29.279Z,74.70
2018-02-11T22:02:57.557Z,74.68
2018-02-11T22:05:25.833Z,75.07
2018-02-11T22:07:54.106Z,74.21
2018-02-11T22:10:23.152Z,75.24
2018-02-11T22:12:51.426Z,76.97
2018-02-11T22:15:19.701Z,76.33
2018-02-11T22:17:47.973Z,77.14
2018-02-11T22:20:16.999Z,77.88
2018-02-11T22:22:45.289Z,76.86
2018-02-11T22:25:13.560Z,76.88
2018-02-11T22:27:41.852Z,76.27
2018-02-11T22:30:10.119Z,76.43
2018-02-11T22:32:39.167Z,77.84
2018-02-11T22:35:07.449Z,76.83
2018-02-11T22:37:35.825Z,76.93
2018-02-11T22:40:04.091Z,77.19
2018-02-11T22:42:33.137Z,77.74
2018-02-11T22:45:01.417Z,77.27
2018-02-11T22:47:29.713Z,78.35
2018-02-11T22:49:57.986Z,77.25
2018-02-11T22:52:26.269Z,77.07
2018-02-11T22:54:55.298Z,77.26
2018-02-11T22:57:23.589Z,77.30
2018-02-11T23:02:20.900Z,79.06
2018-02-11T23:04:49.980Z,79.41
2018-02-11T23:07:18.259Z,79.15
2018-02-11T23:09:46.539Z,79.13
2018-02-11T23:12:15.591Z,78.32
2018-02-11T23:14:43.865Z,77.47
2018-02-11T23:17:12.139Z,77.05
2018-02-11T23:19:51.248Z,77.42
2018-02-11T23:22:19.532Z,78.21
2018-02-11T23:24:47.802Z,77.75
2018-02-11T23:27:16.092Z,79.21
2018-02-11T23:29:44.374Z,78.72
2018-02-11T23:32:12.655Z,79.03
2018-02-11T23:34:40.939Z,79.42
2018-02-11T23:37:09.213Z,79.60
2018-02-11T23:39:37.493Z,79.25
2018-02-11T23:42:05.759Z,78.87
2018-02-11T23:44:34.803Z,78.86
2018-02-11T23:47:03.073Z,79.56
2018-02-11T23:49:31.354Z,79.84
2018-02-11T23:51:59.647Z,79.16
2018-02-11T23:54:27.941Z,78.18
2018-02-11T23:56:56.215Z,78.84
2018-02-11T23:59:25.252Z,79.30
